sensor_id;sensor_type;location;lat;lon;timestamp;P1;durP1;ratioP1;P2;durP2;ratioP2
66946;SDS011;53853;51.982;5.928;2024-01-07T00:01:27;24.77;;;19.55;;
66946;SDS011;53853;51.982;5.928;2024-01-07T00:03:57;26.50;;;20.50;;
66946;SDS011;53853;51.982;5.928;2024-01-07T00:06:27;22.23;;;18.88;;
66946;SDS011;53853;51.982;5.928;2024-01-07T00:08:57;28.98;;;21.63;;
66946;SDS011;53853;51.982;5.928;2024-01-07T00:11:26;30.75;;;22.45;;
66946;SDS011;53853;51.982;5.928;2024-01-07T00:13:59;26.15;;;19.92;;
66946;SDS011;53853;51.982;5.928;2024-01-07T00:16:29;23.58;;;17.10;;
66946;SDS011;53853;51.982;5.928;2024-01-07T00:18:58;26.83;;;20.27;;
66946;SDS011;53853;51.982;5.928;2024-01-07T00:21:29;31.67;;;22.80;;
66946;SDS011;53853;51.982;5.928;2024-01-07T00:23:58;33.00;;;23.63;;
66946;SDS011;53853;51.982;5.928;2024-01-07T00:26:28;25.05;;;19.33;;
66946;SDS011;53853;51.982;5.928;2024-01-07T00:29:01;27.13;;;20.42;;
66946;SDS011;53853;51.982;5.928;2024-01-07T00:31:31;25.73;;;20.35;;
66946;SDS011;53853;51.982;5.928;2024-01-07T00:34:00;29.30;;;21.77;;
66946;SDS011;53853;51.982;5.928;2024-01-07T00:36:30;32.75;;;22.45;;
66946;SDS011;53853;51.982;5.928;2024-01-07T00:39:00;32.38;;;22.95;;
66946;SDS011;53853;51.982;5.928;2024-01-07T00:41:30;29.80;;;22.00;;
66946;SDS011;53853;51.982;5.928;2024-01-07T00:44:02;37.72;;;26.35;;
66946;SDS011;53853;51.982;5.928;2024-01-07T00:46:32;38.40;;;26.02;;
66946;SDS011;53853;51.982;5.928;2024-01-07T00:49:02;44.90;;;29.73;;
66946;SDS011;53853;51.982;5.928;2024-01-07T00:51:32;38.80;;;27.92;;
66946;SDS011;53853;51.982;5.928;2024-01-07T00:54:02;34.35;;;24.35;;
66946;SDS011;53853;51.982;5.928;2024-01-07T00:56:31;37.22;;;24.67;;
66946;SDS011;53853;51.982;5.928;2024-01-07T00:59:04;31.25;;;23.88;;
66946;SDS011;53853;51.982;5.928;2024-01-07T01:01:34;37.38;;;25.08;;
66946;SDS011;53853;51.982;5.928;2024-01-07T01:04:04;32.35;;;22.52;;
66946;SDS011;53853;51.982;5.928;2024-01-07T01:06:33;28.63;;;21.73;;
66946;SDS011;53853;51.982;5.928;2024-01-07T01:09:03;31.48;;;23.33;;
66946;SDS011;53853;51.982;5.928;2024-01-07T01:11:33;31.30;;;23.00;;
66946;SDS011;53853;51.982;5.928;2024-01-07T01:14:05;31.35;;;23.00;;
66946;SDS011;53853;51.982;5.928;2024-01-07T01:16:35;28.10;;;21.58;;
66946;SDS011;53853;51.982;5.928;2024-01-07T01:19:06;27.35;;;21.27;;
66946;SDS011;53853;51.982;5.928;2024-01-07T01:21:35;29.02;;;21.73;;
66946;SDS011;53853;51.982;5.928;2024-01-07T01:24:05;28.85;;;21.10;;
66946;SDS011;53853;51.982;5.928;2024-01-07T01:26:35;27.33;;;21.08;;
66946;SDS011;53853;51.982;5.928;2024-01-07T01:29:07;27.38;;;20.05;;
66946;SDS011;53853;51.982;5.928;2024-01-07T01:31:37;25.42;;;19.63;;
66946;SDS011;53853;51.982;5.928;2024-01-07T01:34:07;26.92;;;19.42;;
66946;SDS011;53853;51.982;5.928;2024-01-07T01:36:37;28.98;;;20.95;;
66946;SDS011;53853;51.982;5.928;2024-01-07T01:39:07;27.73;;;20.80;;
66946;SDS011;53853;51.982;5.928;2024-01-07T01:41:37;22.45;;;17.95;;
66946;SDS011;53853;51.982;5.928;2024-01-07T01:44:09;28.17;;;22.42;;
66946;SDS011;53853;51.982;5.928;2024-01-07T01:46:39;28.73;;;21.90;;
66946;SDS011;53853;51.982;5.928;2024-01-07T01:49:09;23.83;;;18.55;;
66946;SDS011;53853;51.982;5.928;2024-01-07T01:51:40;24.65;;;20.52;;
66946;SDS011;53853;51.982;5.928;2024-01-07T01:54:10;25.10;;;19.10;;
66946;SDS011;53853;51.982;5.928;2024-01-07T01:56:40;27.33;;;19.00;;
66946;SDS011;53853;51.982;5.928;2024-01-07T01:59:14;28.58;;;21.38;;
66946;SDS011;53853;51.982;5.928;2024-01-07T02:01:44;30.20;;;21.03;;
66946;SDS011;53853;51.982;5.928;2024-01-07T02:04:15;30.00;;;22.35;;
66946;SDS011;53853;51.982;5.928;2024-01-07T02:06:45;27.88;;;21.10;;
66946;SDS011;53853;51.982;5.928;2024-01-07T02:09:15;30.02;;;22.08;;
66946;SDS011;53853;51.982;5.928;2024-01-07T02:11:59;31.75;;;21.73;;
66946;SDS011;53853;51.982;5.928;2024-01-07T02:14:32;32.08;;;23.25;;
66946;SDS011;53853;51.982;5.928;2024-01-07T02:17:02;35.42;;;25.15;;
66946;SDS011;53853;51.982;5.928;2024-01-07T02:19:32;36.42;;;24.10;;
66946;SDS011;53853;51.982;5.928;2024-01-07T02:22:02;37.88;;;25.85;;
66946;SDS011;53853;51.982;5.928;2024-01-07T02:24:35;34.17;;;24.50;;
66946;SDS011;53853;51.982;5.928;2024-01-07T02:27:05;32.63;;;22.80;;
66946;SDS011;53853;51.982;5.928;2024-01-07T02:29:35;32.85;;;22.00;;
66946;SDS011;53853;51.982;5.928;2024-01-07T02:32:05;34.28;;;24.27;;
66946;SDS011;53853;51.982;5.928;2024-01-07T02:34:35;35.50;;;23.75;;
66946;SDS011;53853;51.982;5.928;2024-01-07T02:37:05;29.90;;;21.60;;
66946;SDS011;53853;51.982;5.928;2024-01-07T02:39:37;29.75;;;21.27;;
66946;SDS011;53853;51.982;5.928;2024-01-07T02:42:08;37.80;;;23.48;;
66946;SDS011;53853;51.982;5.928;2024-01-07T02:44:38;24.50;;;18.20;;
66946;SDS011;53853;51.982;5.928;2024-01-07T02:47:08;31.63;;;20.52;;
66946;SDS011;53853;51.982;5.928;2024-01-07T02:49:38;24.35;;;18.60;;
66946;SDS011;53853;51.982;5.928;2024-01-07T02:52:08;22.77;;;17.15;;
66946;SDS011;53853;51.982;5.928;2024-01-07T02:54:40;22.48;;;16.55;;
66946;SDS011;53853;51.982;5.928;2024-01-07T02:57:10;25.30;;;18.50;;
66946;SDS011;53853;51.982;5.928;2024-01-07T02:59:40;23.05;;;17.55;;
66946;SDS011;53853;51.982;5.928;2024-01-07T03:02:10;26.40;;;19.52;;
66946;SDS011;53853;51.982;5.928;2024-01-07T03:04:39;25.23;;;18.00;;
66946;SDS011;53853;51.982;5.928;2024-01-07T03:07:09;26.42;;;17.90;;
66946;SDS011;53853;51.982;5.928;2024-01-07T03:09:42;24.88;;;16.80;;
66946;SDS011;53853;51.982;5.928;2024-01-07T03:12:12;21.35;;;16.73;;
66946;SDS011;53853;51.982;5.928;2024-01-07T03:14:43;24.83;;;17.70;;
66946;SDS011;53853;51.982;5.928;2024-01-07T03:17:12;21.85;;;16.30;;
66946;SDS011;53853;51.982;5.928;2024-01-07T03:19:43;19.35;;;15.85;;
66946;SDS011;53853;51.982;5.928;2024-01-07T03:22:13;20.38;;;14.48;;
66946;SDS011;53853;51.982;5.928;2024-01-07T03:24:45;16.80;;;13.60;;
66946;SDS011;53853;51.982;5.928;2024-01-07T03:27:15;20.75;;;14.55;;
66946;SDS011;53853;51.982;5.928;2024-01-07T03:29:45;19.92;;;14.95;;
66946;SDS011;53853;51.982;5.928;2024-01-07T03:32:15;17.10;;;13.50;;
66946;SDS011;53853;51.982;5.928;2024-01-07T03:34:44;19.33;;;14.82;;
66946;SDS011;53853;51.982;5.928;2024-01-07T03:37:14;18.95;;;14.60;;
66946;SDS011;53853;51.982;5.928;2024-01-07T03:39:47;17.05;;;12.88;;
66946;SDS011;53853;51.982;5.928;2024-01-07T03:42:17;15.18;;;11.88;;
66946;SDS011;53853;51.982;5.928;2024-01-07T03:44:47;16.30;;;13.55;;
66946;SDS011;53853;51.982;5.928;2024-01-07T03:47:16;18.35;;;13.63;;
66946;SDS011;53853;51.982;5.928;2024-01-07T03:49:46;17.05;;;12.88;;
66946;SDS011;53853;51.982;5.928;2024-01-07T03:52:16;14.77;;;12.27;;
66946;SDS011;53853;51.982;5.928;2024-01-07T03:54:48;18.23;;;13.35;;
66946;SDS011;53853;51.982;5.928;2024-01-07T03:57:18;16.17;;;13.23;;
66946;SDS011;53853;51.982;5.928;2024-01-07T03:59:48;16.20;;;12.63;;
66946;SDS011;53853;51.982;5.928;2024-01-07T04:02:18;20.25;;;14.05;;
66946;SDS011;53853;51.982;5.928;2024-01-07T04:04:48;17.00;;;13.32;;
66946;SDS011;53853;51.982;5.928;2024-01-07T04:07:17;16.13;;;13.25;;
66946;SDS011;53853;51.982;5.928;2024-01-07T04:09:50;16.02;;;12.60;;
66946;SDS011;53853;51.982;5.928;2024-01-07T04:12:20;18.85;;;15.55;;
66946;SDS011;53853;51.982;5.928;2024-01-07T04:14:49;17.85;;;14.90;;
66946;SDS011;53853;51.982;5.928;2024-01-07T04:17:19;14.65;;;12.35;;
66946;SDS011;53853;51.982;5.928;2024-01-07T04:19:49;20.10;;;16.10;;
66946;SDS011;53853;51.982;5.928;2024-01-07T04:22:20;16.50;;;13.40;;
66946;SDS011;53853;51.982;5.928;2024-01-07T04:24:52;21.63;;;15.50;;
66946;SDS011;53853;51.982;5.928;2024-01-07T04:27:22;16.63;;;14.23;;
66946;SDS011;53853;51.982;5.928;2024-01-07T04:29:52;16.02;;;13.43;;
66946;SDS011;53853;51.982;5.928;2024-01-07T04:32:22;16.88;;;14.57;;
66946;SDS011;53853;51.982;5.928;2024-01-07T04:34:52;16.40;;;13.70;;
66946;SDS011;53853;51.982;5.928;2024-01-07T04:37:23;16.65;;;14.20;;
66946;SDS011;53853;51.982;5.928;2024-01-07T04:39:55;16.73;;;14.77;;
66946;SDS011;53853;51.982;5.928;2024-01-07T04:42:25;17.98;;;13.43;;
66946;SDS011;53853;51.982;5.928;2024-01-07T04:44:55;16.58;;;14.82;;
66946;SDS011;53853;51.982;5.928;2024-01-07T04:47:28;17.70;;;14.18;;
66946;SDS011;53853;51.982;5.928;2024-01-07T04:49:59;18.60;;;14.80;;
66946;SDS011;53853;51.982;5.928;2024-01-07T04:52:30;20.27;;;15.50;;
66946;SDS011;53853;51.982;5.928;2024-01-07T04:55:02;19.35;;;15.02;;
66946;SDS011;53853;51.982;5.928;2024-01-07T04:57:33;17.30;;;12.80;;
66946;SDS011;53853;51.982;5.928;2024-01-07T05:00:03;18.13;;;14.73;;
66946;SDS011;53853;51.982;5.928;2024-01-07T05:02:34;17.45;;;13.32;;
66946;SDS011;53853;51.982;5.928;2024-01-07T05:05:04;17.17;;;13.98;;
66946;SDS011;53853;51.982;5.928;2024-01-07T05:07:37;23.20;;;15.43;;
66946;SDS011;53853;51.982;5.928;2024-01-07T05:10:10;19.65;;;14.55;;
66946;SDS011;53853;51.982;5.928;2024-01-07T05:12:40;19.33;;;14.43;;
66946;SDS011;53853;51.982;5.928;2024-01-07T05:15:10;15.90;;;13.02;;
66946;SDS011;53853;51.982;5.928;2024-01-07T05:17:40;14.48;;;12.98;;
66946;SDS011;53853;51.982;5.928;2024-01-07T05:20:10;18.52;;;15.25;;
66946;SDS011;53853;51.982;5.928;2024-01-07T05:22:40;17.90;;;15.38;;
66946;SDS011;53853;51.982;5.928;2024-01-07T05:25:13;15.20;;;13.15;;
66946;SDS011;53853;51.982;5.928;2024-01-07T05:27:43;14.27;;;12.73;;
66946;SDS011;53853;51.982;5.928;2024-01-07T05:30:16;16.25;;;13.77;;
66946;SDS011;53853;51.982;5.928;2024-01-07T05:32:46;15.48;;;13.70;;
66946;SDS011;53853;51.982;5.928;2024-01-07T05:35:16;14.25;;;12.35;;
66946;SDS011;53853;51.982;5.928;2024-01-07T05:37:46;16.70;;;13.18;;
66946;SDS011;53853;51.982;5.928;2024-01-07T05:40:18;17.15;;;12.55;;
66946;SDS011;53853;51.982;5.928;2024-01-07T05:42:48;14.38;;;11.43;;
66946;SDS011;53853;51.982;5.928;2024-01-07T05:45:18;16.92;;;13.32;;
66946;SDS011;53853;51.982;5.928;2024-01-07T05:47:48;15.73;;;12.75;;
66946;SDS011;53853;51.982;5.928;2024-01-07T05:50:18;15.55;;;12.90;;
66946;SDS011;53853;51.982;5.928;2024-01-07T05:52:48;13.13;;;11.73;;
66946;SDS011;53853;51.982;5.928;2024-01-07T05:55:20;13.20;;;11.43;;
66946;SDS011;53853;51.982;5.928;2024-01-07T05:57:50;16.35;;;13.05;;
66946;SDS011;53853;51.982;5.928;2024-01-07T06:00:20;14.50;;;12.77;;
66946;SDS011;53853;51.982;5.928;2024-01-07T06:02:50;16.50;;;14.00;;
66946;SDS011;53853;51.982;5.928;2024-01-07T06:05:20;13.88;;;11.80;;
66946;SDS011;53853;51.982;5.928;2024-01-07T06:07:50;14.82;;;13.25;;
66946;SDS011;53853;51.982;5.928;2024-01-07T06:10:23;15.02;;;13.25;;
66946;SDS011;53853;51.982;5.928;2024-01-07T06:12:52;14.15;;;12.65;;
66946;SDS011;53853;51.982;5.928;2024-01-07T06:15:22;15.25;;;13.63;;
66946;SDS011;53853;51.982;5.928;2024-01-07T06:17:52;14.65;;;12.63;;
66946;SDS011;53853;51.982;5.928;2024-01-07T06:20:22;13.80;;;11.77;;
66946;SDS011;53853;51.982;5.928;2024-01-07T06:22:52;12.98;;;11.52;;
66946;SDS011;53853;51.982;5.928;2024-01-07T06:25:24;14.50;;;12.07;;
66946;SDS011;53853;51.982;5.928;2024-01-07T06:27:54;12.23;;;10.52;;
66946;SDS011;53853;51.982;5.928;2024-01-07T06:30:24;13.73;;;11.05;;
66946;SDS011;53853;51.982;5.928;2024-01-07T06:32:54;12.45;;;11.02;;
66946;SDS011;53853;51.982;5.928;2024-01-07T06:35:24;14.88;;;12.30;;
66946;SDS011;53853;51.982;5.928;2024-01-07T06:37:54;15.48;;;12.43;;
66946;SDS011;53853;51.982;5.928;2024-01-07T06:40:26;13.95;;;12.55;;
66946;SDS011;53853;51.982;5.928;2024-01-07T06:42:56;14.80;;;12.70;;
66946;SDS011;53853;51.982;5.928;2024-01-07T06:45:26;13.57;;;11.82;;
66946;SDS011;53853;51.982;5.928;2024-01-07T06:47:56;12.90;;;10.77;;
66946;SDS011;53853;51.982;5.928;2024-01-07T06:50:26;13.93;;;11.52;;
66946;SDS011;53853;51.982;5.928;2024-01-07T06:52:56;14.88;;;11.85;;
66946;SDS011;53853;51.982;5.928;2024-01-07T06:55:28;16.90;;;13.88;;
66946;SDS011;53853;51.982;5.928;2024-01-07T06:57:58;13.40;;;11.95;;
66946;SDS011;53853;51.982;5.928;2024-01-07T07:00:28;14.60;;;11.98;;
66946;SDS011;53853;51.982;5.928;2024-01-07T07:02:58;13.75;;;11.40;;
66946;SDS011;53853;51.982;5.928;2024-01-07T07:05:28;17.65;;;13.00;;
66946;SDS011;53853;51.982;5.928;2024-01-07T07:07:57;13.38;;;11.50;;
66946;SDS011;53853;51.982;5.928;2024-01-07T07:10:30;17.45;;;12.77;;
66946;SDS011;53853;51.982;5.928;2024-01-07T07:13:00;14.55;;;12.48;;
66946;SDS011;53853;51.982;5.928;2024-01-07T07:15:30;13.27;;;11.82;;
66946;SDS011;53853;51.982;5.928;2024-01-07T07:18:00;13.20;;;11.52;;
66946;SDS011;53853;51.982;5.928;2024-01-07T07:20:30;12.45;;;10.88;;
66946;SDS011;53853;51.982;5.928;2024-01-07T07:22:59;11.70;;;10.50;;
66946;SDS011;53853;51.982;5.928;2024-01-07T07:25:32;16.73;;;11.45;;
66946;SDS011;53853;51.982;5.928;2024-01-07T07:28:02;14.00;;;11.05;;
66946;SDS011;53853;51.982;5.928;2024-01-07T07:30:32;12.52;;;10.15;;
66946;SDS011;53853;51.982;5.928;2024-01-07T07:33:02;12.88;;;11.48;;
66946;SDS011;53853;51.982;5.928;2024-01-07T07:35:32;14.27;;;10.68;;
66946;SDS011;53853;51.982;5.928;2024-01-07T07:38:04;13.23;;;11.43;;
66946;SDS011;53853;51.982;5.928;2024-01-07T07:40:37;12.35;;;11.05;;
66946;SDS011;53853;51.982;5.928;2024-01-07T07:43:07;13.20;;;10.70;;
66946;SDS011;53853;51.982;5.928;2024-01-07T07:45:38;12.50;;;11.20;;
66946;SDS011;53853;51.982;5.928;2024-01-07T07:48:08;12.95;;;11.10;;
66946;SDS011;53853;51.982;5.928;2024-01-07T07:50:37;11.45;;;9.77;;
66946;SDS011;53853;51.982;5.928;2024-01-07T07:53:07;12.43;;;10.85;;
66946;SDS011;53853;51.982;5.928;2024-01-07T07:55:40;10.70;;;9.45;;
66946;SDS011;53853;51.982;5.928;2024-01-07T07:58:10;13.00;;;10.57;;
66946;SDS011;53853;51.982;5.928;2024-01-07T08:00:39;11.60;;;10.38;;
66946;SDS011;53853;51.982;5.928;2024-01-07T08:03:10;11.75;;;10.07;;
66946;SDS011;53853;51.982;5.928;2024-01-07T08:05:41;9.93;;;8.82;;
66946;SDS011;53853;51.982;5.928;2024-01-07T08:08:11;11.57;;;9.05;;
66946;SDS011;53853;51.982;5.928;2024-01-07T08:10:43;10.57;;;9.48;;
66946;SDS011;53853;51.982;5.928;2024-01-07T08:13:13;10.00;;;8.32;;
66946;SDS011;53853;51.982;5.928;2024-01-07T08:15:43;9.20;;;8.18;;
66946;SDS011;53853;51.982;5.928;2024-01-07T08:18:16;10.20;;;9.20;;
66946;SDS011;53853;51.982;5.928;2024-01-07T08:20:46;11.40;;;9.52;;
66946;SDS011;53853;51.982;5.928;2024-01-07T08:23:16;9.18;;;8.25;;
66946;SDS011;53853;51.982;5.928;2024-01-07T08:25:49;9.82;;;8.25;;
66946;SDS011;53853;51.982;5.928;2024-01-07T08:28:19;9.65;;;8.20;;
66946;SDS011;53853;51.982;5.928;2024-01-07T08:30:49;10.90;;;8.93;;
66946;SDS011;53853;51.982;5.928;2024-01-07T08:33:19;9.02;;;7.22;;
66946;SDS011;53853;51.982;5.928;2024-01-07T08:35:49;8.98;;;8.07;;
66946;SDS011;53853;51.982;5.928;2024-01-07T08:38:19;9.15;;;7.82;;
66946;SDS011;53853;51.982;5.928;2024-01-07T08:40:51;8.52;;;7.03;;
66946;SDS011;53853;51.982;5.928;2024-01-07T08:43:18;8.23;;;7.40;;
66946;SDS011;53853;51.982;5.928;2024-01-07T08:45:48;10.13;;;9.05;;
66946;SDS011;53853;51.982;5.928;2024-01-07T08:48:18;10.30;;;9.07;;
66946;SDS011;53853;51.982;5.928;2024-01-07T08:50:48;10.35;;;8.63;;
66946;SDS011;53853;51.982;5.928;2024-01-07T08:53:18;9.95;;;8.95;;
66946;SDS011;53853;51.982;5.928;2024-01-07T08:55:51;11.27;;;9.38;;
66946;SDS011;53853;51.982;5.928;2024-01-07T08:58:21;10.98;;;9.02;;
66946;SDS011;53853;51.982;5.928;2024-01-07T09:00:51;9.55;;;8.57;;
66946;SDS011;53853;51.982;5.928;2024-01-07T09:03:21;10.05;;;9.05;;
66946;SDS011;53853;51.982;5.928;2024-01-07T09:05:50;9.93;;;8.82;;
66946;SDS011;53853;51.982;5.928;2024-01-07T09:08:20;12.15;;;9.18;;
66946;SDS011;53853;51.982;5.928;2024-01-07T09:10:53;10.63;;;9.18;;
66946;SDS011;53853;51.982;5.928;2024-01-07T09:13:22;9.65;;;7.95;;
66946;SDS011;53853;51.982;5.928;2024-01-07T09:15:52;9.18;;;7.90;;
66946;SDS011;53853;51.982;5.928;2024-01-07T09:18:22;11.30;;;9.65;;
66946;SDS011;53853;51.982;5.928;2024-01-07T09:20:52;9.80;;;8.80;;
66946;SDS011;53853;51.982;5.928;2024-01-07T09:23:22;8.90;;;8.00;;
66946;SDS011;53853;51.982;5.928;2024-01-07T09:25:54;11.27;;;8.95;;
66946;SDS011;53853;51.982;5.928;2024-01-07T09:28:24;9.82;;;8.82;;
66946;SDS011;53853;51.982;5.928;2024-01-07T09:30:54;10.50;;;8.32;;
66946;SDS011;53853;51.982;5.928;2024-01-07T09:33:24;11.82;;;8.07;;
66946;SDS011;53853;51.982;5.928;2024-01-07T09:35:54;9.52;;;7.63;;
66946;SDS011;53853;51.982;5.928;2024-01-07T09:38:24;10.50;;;7.57;;
66946;SDS011;53853;51.982;5.928;2024-01-07T09:40:56;9.40;;;8.25;;
66946;SDS011;53853;51.982;5.928;2024-01-07T09:43:26;10.82;;;8.90;;
66946;SDS011;53853;51.982;5.928;2024-01-07T09:45:56;11.68;;;8.55;;
66946;SDS011;53853;51.982;5.928;2024-01-07T09:48:28;11.15;;;8.05;;
66946;SDS011;53853;51.982;5.928;2024-01-07T09:51:00;9.00;;;7.43;;
66946;SDS011;53853;51.982;5.928;2024-01-07T09:53:31;11.38;;;7.85;;
66946;SDS011;53853;51.982;5.928;2024-01-07T09:56:11;11.02;;;7.68;;
66946;SDS011;53853;51.982;5.928;2024-01-07T09:58:47;8.90;;;6.57;;
66946;SDS011;53853;51.982;5.928;2024-01-07T10:01:17;8.40;;;7.03;;
66946;SDS011;53853;51.982;5.928;2024-01-07T10:03:47;8.40;;;7.05;;
66946;SDS011;53853;51.982;5.928;2024-01-07T10:06:18;8.73;;;6.40;;
66946;SDS011;53853;51.982;5.928;2024-01-07T10:08:49;7.07;;;5.68;;
66946;SDS011;53853;51.982;5.928;2024-01-07T10:11:21;7.72;;;5.72;;
66946;SDS011;53853;51.982;5.928;2024-01-07T10:13:51;9.75;;;6.35;;
66946;SDS011;53853;51.982;5.928;2024-01-07T10:16:21;6.03;;;5.32;;
66946;SDS011;53853;51.982;5.928;2024-01-07T10:18:51;7.20;;;5.93;;
66946;SDS011;53853;51.982;5.928;2024-01-07T10:21:21;7.50;;;6.10;;
66946;SDS011;53853;51.982;5.928;2024-01-07T10:23:51;7.50;;;6.22;;
66946;SDS011;53853;51.982;5.928;2024-01-07T10:26:40;6.93;;;5.85;;
66946;SDS011;53853;51.982;5.928;2024-01-07T10:29:10;7.07;;;5.47;;
66946;SDS011;53853;51.982;5.928;2024-01-07T10:31:41;7.25;;;5.47;;
66946;SDS011;53853;51.982;5.928;2024-01-07T10:34:11;6.72;;;5.25;;
66946;SDS011;53853;51.982;5.928;2024-01-07T10:36:43;7.45;;;5.20;;
66946;SDS011;53853;51.982;5.928;2024-01-07T10:39:14;9.52;;;5.03;;
66946;SDS011;53853;51.982;5.928;2024-01-07T10:41:46;6.63;;;5.28;;
66946;SDS011;53853;51.982;5.928;2024-01-07T10:44:23;6.65;;;5.20;;
66946;SDS011;53853;51.982;5.928;2024-01-07T10:46:57;6.00;;;4.82;;
66946;SDS011;53853;51.982;5.928;2024-01-07T10:49:29;6.97;;;5.18;;
66946;SDS011;53853;51.982;5.928;2024-01-07T10:52:02;5.72;;;4.85;;
66946;SDS011;53853;51.982;5.928;2024-01-07T10:54:33;8.30;;;4.28;;
66946;SDS011;53853;51.982;5.928;2024-01-07T10:57:07;5.93;;;5.22;;
66946;SDS011;53853;51.982;5.928;2024-01-07T10:59:41;5.10;;;4.57;;
66946;SDS011;53853;51.982;5.928;2024-01-07T11:02:13;6.07;;;4.68;;
66946;SDS011;53853;51.982;5.928;2024-01-07T11:04:45;5.05;;;4.25;;
66946;SDS011;53853;51.982;5.928;2024-01-07T11:07:22;4.88;;;4.38;;
66946;SDS011;53853;51.982;5.928;2024-01-07T11:10:05;6.88;;;4.85;;
66946;SDS011;53853;51.982;5.928;2024-01-07T11:12:43;6.15;;;5.15;;
66946;SDS011;53853;51.982;5.928;2024-01-07T11:18:22;6.57;;;4.38;;
66946;SDS011;53853;51.982;5.928;2024-01-07T11:20:52;5.75;;;4.35;;
66946;SDS011;53853;51.982;5.928;2024-01-07T11:23:27;4.20;;;3.15;;
66946;SDS011;53853;51.982;5.928;2024-01-07T11:25:59;5.18;;;4.25;;
66946;SDS011;53853;51.982;5.928;2024-01-07T11:31:20;4.80;;;3.75;;
66946;SDS011;53853;51.982;5.928;2024-01-07T11:34:10;4.82;;;4.00;;
66946;SDS011;53853;51.982;5.928;2024-01-07T11:37:00;6.10;;;4.00;;
66946;SDS011;53853;51.982;5.928;2024-01-07T11:39:32;4.60;;;3.78;;
66946;SDS011;53853;51.982;5.928;2024-01-07T11:42:03;5.22;;;3.67;;
66946;SDS011;53853;51.982;5.928;2024-01-07T11:44:36;5.18;;;3.58;;
66946;SDS011;53853;51.982;5.928;2024-01-07T11:47:13;4.70;;;3.50;;
66946;SDS011;53853;51.982;5.928;2024-01-07T11:49:43;4.70;;;2.88;;
66946;SDS011;53853;51.982;5.928;2024-01-07T11:52:13;4.18;;;3.33;;
66946;SDS011;53853;51.982;5.928;2024-01-07T11:54:44;4.78;;;3.35;;
66946;SDS011;53853;51.982;5.928;2024-01-07T11:57:15;4.57;;;3.10;;
66946;SDS011;53853;51.982;5.928;2024-01-07T11:59:47;6.55;;;2.78;;
66946;SDS011;53853;51.982;5.928;2024-01-07T12:02:18;3.83;;;2.40;;
66946;SDS011;53853;51.982;5.928;2024-01-07T12:04:49;4.00;;;2.53;;
66946;SDS011;53853;51.982;5.928;2024-01-07T12:07:19;3.42;;;2.13;;
66946;SDS011;53853;51.982;5.928;2024-01-07T12:09:54;4.22;;;2.70;;
66946;SDS011;53853;51.982;5.928;2024-01-07T12:12:24;3.55;;;2.42;;
66946;SDS011;53853;51.982;5.928;2024-01-07T12:14:57;4.05;;;2.55;;
66946;SDS011;53853;51.982;5.928;2024-01-07T12:17:30;5.35;;;3.22;;
66946;SDS011;53853;51.982;5.928;2024-01-07T12:20:00;4.15;;;3.00;;
66946;SDS011;53853;51.982;5.928;2024-01-07T12:22:33;4.03;;;2.33;;
66946;SDS011;53853;51.982;5.928;2024-01-07T12:25:06;3.63;;;2.60;;
66946;SDS011;53853;51.982;5.928;2024-01-07T12:27:37;4.60;;;2.70;;
66946;SDS011;53853;51.982;5.928;2024-01-07T12:30:12;4.32;;;2.83;;
66946;SDS011;53853;51.982;5.928;2024-01-07T12:32:43;3.78;;;2.58;;
66946;SDS011;53853;51.982;5.928;2024-01-07T12:35:15;3.75;;;2.55;;
66946;SDS011;53853;51.982;5.928;2024-01-07T12:37:47;3.63;;;2.47;;
66946;SDS011;53853;51.982;5.928;2024-01-07T12:40:15;3.85;;;2.22;;
66946;SDS011;53853;51.982;5.928;2024-01-07T12:42:45;3.60;;;2.28;;
66946;SDS011;53853;51.982;5.928;2024-01-07T12:45:18;4.90;;;2.35;;
66946;SDS011;53853;51.982;5.928;2024-01-07T12:47:48;2.90;;;1.98;;
66946;SDS011;53853;51.982;5.928;2024-01-07T12:50:20;5.38;;;2.58;;
66946;SDS011;53853;51.982;5.928;2024-01-07T12:52:53;5.00;;;2.77;;
66946;SDS011;53853;51.982;5.928;2024-01-07T12:55:24;4.70;;;2.30;;
66946;SDS011;53853;51.982;5.928;2024-01-07T12:57:55;3.70;;;2.33;;
66946;SDS011;53853;51.982;5.928;2024-01-07T13:00:27;4.28;;;2.58;;
66946;SDS011;53853;51.982;5.928;2024-01-07T13:05:30;2.90;;;2.15;;
66946;SDS011;53853;51.982;5.928;2024-01-07T13:07:59;3.45;;;2.00;;
66946;SDS011;53853;51.982;5.928;2024-01-07T13:10:29;3.42;;;2.15;;
66946;SDS011;53853;51.982;5.928;2024-01-07T13:12:59;4.28;;;2.20;;
66946;SDS011;53853;51.982;5.928;2024-01-07T13:15:31;3.80;;;2.63;;
66946;SDS011;53853;51.982;5.928;2024-01-07T13:18:01;4.60;;;2.40;;
66946;SDS011;53853;51.982;5.928;2024-01-07T13:20:32;3.25;;;2.28;;
66946;SDS011;53853;51.982;5.928;2024-01-07T13:23:03;2.85;;;2.40;;
66946;SDS011;53853;51.982;5.928;2024-01-07T13:25:33;3.40;;;2.10;;
66946;SDS011;53853;51.982;5.928;2024-01-07T13:28:03;4.07;;;2.28;;
66946;SDS011;53853;51.982;5.928;2024-01-07T13:30:39;3.53;;;2.17;;
66946;SDS011;53853;51.982;5.928;2024-01-07T13:33:09;2.47;;;1.95;;
66946;SDS011;53853;51.982;5.928;2024-01-07T13:35:39;4.78;;;2.15;;
66946;SDS011;53853;51.982;5.928;2024-01-07T13:38:09;2.83;;;2.00;;
66946;SDS011;53853;51.982;5.928;2024-01-07T13:40:38;3.58;;;2.00;;
66946;SDS011;53853;51.982;5.928;2024-01-07T13:43:08;2.88;;;2.00;;
66946;SDS011;53853;51.982;5.928;2024-01-07T13:45:41;2.78;;;1.80;;
66946;SDS011;53853;51.982;5.928;2024-01-07T13:48:11;3.55;;;2.00;;
66946;SDS011;53853;51.982;5.928;2024-01-07T13:50:40;2.67;;;1.70;;
66946;SDS011;53853;51.982;5.928;2024-01-07T13:53:11;5.18;;;1.98;;
66946;SDS011;53853;51.982;5.928;2024-01-07T13:55:41;2.72;;;1.75;;
66946;SDS011;53853;51.982;5.928;2024-01-07T13:58:12;4.07;;;2.50;;
66946;SDS011;53853;51.982;5.928;2024-01-07T14:00:44;3.75;;;2.13;;
66946;SDS011;53853;51.982;5.928;2024-01-07T14:03:14;3.92;;;2.33;;
66946;SDS011;53853;51.982;5.928;2024-01-07T14:05:44;4.18;;;1.75;;
66946;SDS011;53853;51.982;5.928;2024-01-07T14:08:14;2.78;;;1.95;;
66946;SDS011;53853;51.982;5.928;2024-01-07T14:10:44;3.20;;;2.13;;
66946;SDS011;53853;51.982;5.928;2024-01-07T14:13:14;5.30;;;1.88;;
66946;SDS011;53853;51.982;5.928;2024-01-07T14:15:47;2.90;;;1.85;;
66946;SDS011;53853;51.982;5.928;2024-01-07T14:18:17;6.15;;;2.22;;
66946;SDS011;53853;51.982;5.928;2024-01-07T14:20:48;3.22;;;1.73;;
66946;SDS011;53853;51.982;5.928;2024-01-07T14:23:18;3.42;;;2.42;;
66946;SDS011;53853;51.982;5.928;2024-01-07T14:25:47;4.20;;;2.03;;
66946;SDS011;53853;51.982;5.928;2024-01-07T14:28:17;5.10;;;2.50;;
66946;SDS011;53853;51.982;5.928;2024-01-07T14:30:50;3.70;;;2.13;;
66946;SDS011;53853;51.982;5.928;2024-01-07T14:33:19;3.13;;;1.90;;
66946;SDS011;53853;51.982;5.928;2024-01-07T14:35:49;5.15;;;2.00;;
66946;SDS011;53853;51.982;5.928;2024-01-07T14:38:19;3.13;;;2.03;;
66946;SDS011;53853;51.982;5.928;2024-01-07T14:40:51;3.45;;;2.30;;
66946;SDS011;53853;51.982;5.928;2024-01-07T14:43:22;3.25;;;1.95;;
66946;SDS011;53853;51.982;5.928;2024-01-07T14:45:54;3.92;;;2.08;;
66946;SDS011;53853;51.982;5.928;2024-01-07T14:48:24;3.10;;;2.03;;
66946;SDS011;53853;51.982;5.928;2024-01-07T14:50:54;4.93;;;2.28;;
66946;SDS011;53853;51.982;5.928;2024-01-07T14:53:24;3.88;;;2.50;;
66946;SDS011;53853;51.982;5.928;2024-01-07T14:55:54;4.25;;;2.30;;
66946;SDS011;53853;51.982;5.928;2024-01-07T14:58:24;2.97;;;2.05;;
66946;SDS011;53853;51.982;5.928;2024-01-07T15:00:56;3.25;;;2.28;;
66946;SDS011;53853;51.982;5.928;2024-01-07T15:03:27;4.63;;;2.55;;